WZZ658 LIBD-LHBP
Flight info
| Callsign | WZZ658 |
|---|---|
| Flight time | 1h 7m |
| Altitude | 37000 |
| Route | BANAV DCT AIOSA DCT AMUGO DCT NETKO DCT BAREB DCT ULZAK |
| Aircraft | A321/M-SDE1E2E3FGIJ1J4RWXY/LB1 |
Departure
| Time | 2026-05-05 13:53 |
|---|---|
| Airport | Bari Karol Wojtyła International Airport (LIBD) |
Arrival
| Time | 2026-05-05 15:01 |
|---|---|
| Airport | Budapest Liszt Ferenc International Airport (LHBP) |
| Time | Latitude | Longitude | Altitude | Speed | Heading |
|---|---|---|---|---|---|
| 2026-05-05 13:30 | 41.13679 | 16.76706 | 136 ft | 0 kts | 204° |
| 2026-05-05 13:46 | 41.13694 | 16.76715 | 136 ft | 4 kts | 190° |
| 2026-05-05 13:46 | 41.13719 | 16.76713 | 136 ft | 4 kts | 151° |
| 2026-05-05 13:46 | 41.13737 | 16.76690 | 136 ft | 4 kts | 112° |
| 2026-05-05 13:47 | 41.13742 | 16.76658 | 136 ft | 4 kts | 74° |
| 2026-05-05 13:47 | 41.13740 | 16.76651 | 136 ft | 1 kts | 68° |
| 2026-05-05 13:49 | 41.13741 | 16.76653 | 136 ft | 1 kts | 68° |
| 2026-05-05 13:50 | 41.13750 | 16.76688 | 136 ft | 8 kts | 70° |
| 2026-05-05 13:50 | 41.13780 | 16.76769 | 133 ft | 11 kts | 41° |
| 2026-05-05 13:50 | 41.13848 | 16.76759 | 125 ft | 11 kts | 1° |
| 2026-05-05 13:50 | 41.13891 | 16.76861 | 122 ft | 15 kts | 69° |
| 2026-05-05 13:51 | 41.13929 | 16.76993 | 124 ft | 16 kts | 69° |
| 2026-05-05 13:51 | 41.13971 | 16.77142 | 122 ft | 18 kts | 69° |
| 2026-05-05 13:51 | 41.14016 | 16.77299 | 121 ft | 18 kts | 70° |
| 2026-05-05 13:51 | 41.14085 | 16.77394 | 119 ft | 15 kts | 20° |
| 2026-05-05 13:52 | 41.14182 | 16.77413 | 116 ft | 14 kts | 340° |
| 2026-05-05 13:52 | 41.14221 | 16.77365 | 117 ft | 8 kts | 256° |
| 2026-05-05 13:52 | 41.14197 | 16.77281 | 114 ft | 16 kts | 250° |
| 2026-05-05 13:52 | 41.14071 | 16.76834 | 124 ft | 89 kts | 250° |
| 2026-05-05 13:53 | 41.13774 | 16.75783 | 139 ft | 152 kts | 249° |
| 2026-05-05 13:53 | 41.13388 | 16.74364 | 651 ft | 162 kts | 252° |
| 2026-05-05 13:53 | 41.13009 | 16.72966 | 1437 ft | 159 kts | 248° |
| 2026-05-05 13:53 | 41.12621 | 16.71592 | 2072 ft | 159 kts | 246° |
| 2026-05-05 13:54 | 41.12362 | 16.70684 | 2493 ft | 158 kts | 249° |
| 2026-05-05 13:54 | 41.11970 | 16.69317 | 3072 ft | 159 kts | 248° |
| 2026-05-05 13:54 | 41.11429 | 16.67444 | 3656 ft | 175 kts | 248° |
| 2026-05-05 13:54 | 41.10965 | 16.65840 | 3931 ft | 197 kts | 248° |
| 2026-05-05 13:55 | 41.10452 | 16.64065 | 4252 ft | 212 kts | 248° |
| 2026-05-05 13:55 | 41.10092 | 16.62818 | 4613 ft | 216 kts | 248° |
| 2026-05-05 13:55 | 41.09553 | 16.60953 | 5269 ft | 217 kts | 248° |
| 2026-05-05 13:55 | 41.09059 | 16.59084 | 5902 ft | 222 kts | 257° |
| 2026-05-05 13:56 | 41.09083 | 16.56943 | 6215 ft | 247 kts | 287° |
| 2026-05-05 13:56 | 41.10089 | 16.55005 | 6651 ft | 268 kts | 322° |
| 2026-05-05 13:56 | 41.11858 | 16.54153 | 7293 ft | 281 kts | 355° |
| 2026-05-05 13:56 | 41.13787 | 16.54702 | 8028 ft | 290 kts | 21° |
| 2026-05-05 13:57 | 41.15576 | 16.55995 | 8803 ft | 295 kts | 30° |
| 2026-05-05 13:57 | 41.17279 | 16.57562 | 9561 ft | 300 kts | 33° |
| 2026-05-05 13:57 | 41.18964 | 16.59220 | 10268 ft | 305 kts | 33° |
| 2026-05-05 13:57 | 41.20742 | 16.60951 | 10520 ft | 328 kts | 33° |
| 2026-05-05 13:58 | 41.22672 | 16.62767 | 10716 ft | 349 kts | 32° |
| 2026-05-05 13:58 | 41.24683 | 16.64596 | 11232 ft | 357 kts | 31° |
| 2026-05-05 13:58 | 41.26782 | 16.66461 | 11894 ft | 361 kts | 31° |
| 2026-05-05 13:58 | 41.28872 | 16.68289 | 12559 ft | 365 kts | 30° |
| 2026-05-05 13:59 | 41.33162 | 16.72020 | 13926 ft | 372 kts | 30° |
| 2026-05-05 13:59 | 41.35341 | 16.73916 | 14544 ft | 375 kts | 30° |
| 2026-05-05 14:00 | 41.39736 | 16.77755 | 15826 ft | 380 kts | 30° |
| 2026-05-05 14:00 | 41.41952 | 16.79701 | 16454 ft | 383 kts | 30° |
| 2026-05-05 14:00 | 41.44191 | 16.81670 | 17076 ft | 387 kts | 30° |
| 2026-05-05 14:00 | 41.46448 | 16.83658 | 17681 ft | 390 kts | 30° |
| 2026-05-05 14:01 | 41.48694 | 16.85640 | 18282 ft | 394 kts | 30° |
| 2026-05-05 14:01 | 41.50987 | 16.87663 | 18810 ft | 398 kts | 30° |
| 2026-05-05 14:01 | 41.53307 | 16.89706 | 19338 ft | 401 kts | 30° |
| 2026-05-05 14:01 | 41.55648 | 16.91769 | 19869 ft | 405 kts | 30° |
| 2026-05-05 14:02 | 41.58010 | 16.93850 | 20399 ft | 409 kts | 30° |
| 2026-05-05 14:02 | 41.60394 | 16.95951 | 20924 ft | 412 kts | 30° |
| 2026-05-05 14:02 | 41.62797 | 16.98075 | 21463 ft | 416 kts | 29° |
| 2026-05-05 14:02 | 41.65223 | 17.00216 | 21978 ft | 420 kts | 29° |
| 2026-05-05 14:03 | 41.67668 | 17.02380 | 22495 ft | 423 kts | 29° |
| 2026-05-05 14:03 | 41.70133 | 17.04564 | 22997 ft | 427 kts | 29° |
| 2026-05-05 14:03 | 41.72614 | 17.06777 | 23481 ft | 431 kts | 29° |
| 2026-05-05 14:03 | 41.75117 | 17.09009 | 23956 ft | 434 kts | 29° |
| 2026-05-05 14:04 | 41.77636 | 17.11254 | 24392 ft | 436 kts | 29° |
| 2026-05-05 14:04 | 41.80168 | 17.13509 | 24815 ft | 438 kts | 28° |
| 2026-05-05 14:04 | 41.82714 | 17.15775 | 25223 ft | 440 kts | 28° |
| 2026-05-05 14:04 | 41.85279 | 17.18060 | 25656 ft | 443 kts | 28° |
| 2026-05-05 14:05 | 41.87847 | 17.20353 | 26065 ft | 445 kts | 28° |
| 2026-05-05 14:05 | 41.90440 | 17.22646 | 26484 ft | 445 kts | 25° |
| 2026-05-05 14:05 | 41.93178 | 17.24520 | 26897 ft | 440 kts | 17° |
| 2026-05-05 14:05 | 41.96071 | 17.25779 | 27294 ft | 435 kts | 7° |
| 2026-05-05 14:06 | 41.99035 | 17.26595 | 27685 ft | 436 kts | 5° |
| 2026-05-05 14:06 | 42.02014 | 17.27421 | 28080 ft | 438 kts | 6° |
| 2026-05-05 14:06 | 42.05002 | 17.28274 | 28465 ft | 440 kts | 6° |
| 2026-05-05 14:06 | 42.08008 | 17.29142 | 28842 ft | 443 kts | 6° |
| 2026-05-05 14:07 | 42.11022 | 17.30023 | 29220 ft | 445 kts | 6° |
| 2026-05-05 14:07 | 42.14060 | 17.30912 | 29529 ft | 448 kts | 6° |
| 2026-05-05 14:07 | 42.17078 | 17.31793 | 29853 ft | 451 kts | 6° |
| 2026-05-05 14:07 | 42.20151 | 17.32688 | 30197 ft | 453 kts | 5° |
| 2026-05-05 14:08 | 42.23242 | 17.33585 | 30501 ft | 455 kts | 5° |
| 2026-05-05 14:08 | 42.26351 | 17.34483 | 30808 ft | 457 kts | 5° |
| 2026-05-05 14:08 | 42.29471 | 17.35380 | 31183 ft | 457 kts | 5° |
| 2026-05-05 14:08 | 42.32580 | 17.36275 | 31620 ft | 456 kts | 6° |
| 2026-05-05 14:09 | 42.35675 | 17.37169 | 32043 ft | 455 kts | 5° |
| 2026-05-05 14:09 | 42.38763 | 17.38065 | 32467 ft | 453 kts | 5° |
| 2026-05-05 14:09 | 42.41846 | 17.38962 | 32885 ft | 452 kts | 5° |
| 2026-05-05 14:09 | 42.44928 | 17.39860 | 33302 ft | 451 kts | 5° |
| 2026-05-05 14:10 | 42.47995 | 17.40757 | 33745 ft | 449 kts | 5° |
| 2026-05-05 14:10 | 42.51007 | 17.41636 | 34155 ft | 448 kts | 5° |
| 2026-05-05 14:10 | 42.54050 | 17.42523 | 34488 ft | 447 kts | 5° |
| 2026-05-05 14:10 | 42.57091 | 17.43411 | 34824 ft | 446 kts | 5° |
| 2026-05-05 14:11 | 42.60127 | 17.44299 | 35160 ft | 445 kts | 5° |
| 2026-05-05 14:11 | 42.63151 | 17.45185 | 35495 ft | 444 kts | 5° |
| 2026-05-05 14:11 | 42.66168 | 17.46065 | 35830 ft | 443 kts | 5° |
| 2026-05-05 14:11 | 42.69180 | 17.46944 | 36169 ft | 443 kts | 6° |
| 2026-05-05 14:12 | 42.72191 | 17.47828 | 36463 ft | 442 kts | 6° |
| 2026-05-05 14:12 | 42.75195 | 17.48715 | 36758 ft | 442 kts | 6° |
| 2026-05-05 14:12 | 42.78205 | 17.49603 | 37022 ft | 442 kts | 6° |
| 2026-05-05 14:12 | 42.81206 | 17.50487 | 37090 ft | 441 kts | 6° |
| 2026-05-05 14:13 | 42.87210 | 17.52251 | 37096 ft | 440 kts | 6° |
| 2026-05-05 14:13 | 42.93209 | 17.54018 | 37091 ft | 441 kts | 7° |
| 2026-05-05 14:14 | 42.99211 | 17.55802 | 37086 ft | 442 kts | 7° |
| 2026-05-05 14:14 | 43.05218 | 17.57583 | 37090 ft | 442 kts | 6° |
| 2026-05-05 14:15 | 43.11214 | 17.59360 | 37100 ft | 443 kts | 7° |
| 2026-05-05 14:15 | 43.17247 | 17.61156 | 37098 ft | 444 kts | 7° |
| 2026-05-05 14:16 | 43.23291 | 17.62960 | 37102 ft | 444 kts | 7° |
| 2026-05-05 14:16 | 43.29342 | 17.64760 | 37100 ft | 445 kts | 7° |
| 2026-05-05 14:17 | 43.35403 | 17.66576 | 37100 ft | 446 kts | 7° |
| 2026-05-05 14:17 | 43.41465 | 17.68398 | 37091 ft | 446 kts | 7° |
| 2026-05-05 14:18 | 43.47509 | 17.70221 | 37087 ft | 447 kts | 7° |
| 2026-05-05 14:18 | 43.53569 | 17.72049 | 37083 ft | 446 kts | 7° |
| 2026-05-05 14:19 | 43.59653 | 17.73878 | 37087 ft | 447 kts | 5° |
| 2026-05-05 14:19 | 43.65736 | 17.75703 | 37083 ft | 448 kts | 7° |
| 2026-05-05 14:20 | 43.71785 | 17.77533 | 37078 ft | 448 kts | 8° |
| 2026-05-05 14:20 | 43.77886 | 17.79394 | 37068 ft | 449 kts | 8° |
| 2026-05-05 14:21 | 43.83995 | 17.81258 | 37067 ft | 449 kts | 8° |
| 2026-05-05 14:21 | 43.90090 | 17.83131 | 37057 ft | 449 kts | 8° |
| 2026-05-05 14:22 | 43.96201 | 17.85002 | 37057 ft | 449 kts | 8° |
| 2026-05-05 14:22 | 44.02303 | 17.86857 | 37048 ft | 449 kts | 8° |
| 2026-05-05 14:23 | 44.08410 | 17.88730 | 37047 ft | 449 kts | 8° |
| 2026-05-05 14:23 | 44.14468 | 17.90596 | 37039 ft | 449 kts | 8° |
| 2026-05-05 14:24 | 44.20566 | 17.92473 | 37034 ft | 448 kts | 8° |
| 2026-05-05 14:24 | 44.26660 | 17.94361 | 37029 ft | 448 kts | 8° |
| 2026-05-05 14:25 | 44.32744 | 17.96245 | 37023 ft | 447 kts | 8° |
| 2026-05-05 14:25 | 44.38812 | 17.98123 | 37016 ft | 446 kts | 8° |
| 2026-05-05 14:26 | 44.44881 | 18.00016 | 37001 ft | 446 kts | 8° |
| 2026-05-05 14:26 | 44.50937 | 18.01906 | 36989 ft | 446 kts | 8° |
| 2026-05-05 14:27 | 44.56994 | 18.03793 | 36991 ft | 446 kts | 8° |
| 2026-05-05 14:27 | 44.63012 | 18.05672 | 36987 ft | 446 kts | 8° |
| 2026-05-05 14:28 | 44.69072 | 18.07574 | 36978 ft | 446 kts | 9° |
| 2026-05-05 14:28 | 44.75135 | 18.09486 | 36980 ft | 446 kts | 9° |
| 2026-05-05 14:29 | 44.81206 | 18.11400 | 36959 ft | 448 kts | 9° |
| 2026-05-05 14:29 | 44.87293 | 18.13331 | 36956 ft | 449 kts | 9° |
| 2026-05-05 14:30 | 44.93390 | 18.15255 | 36966 ft | 449 kts | 9° |
| 2026-05-05 14:30 | 44.99491 | 18.17179 | 36969 ft | 448 kts | 9° |
| 2026-05-05 14:31 | 45.05573 | 18.19104 | 36940 ft | 448 kts | 9° |
| 2026-05-05 14:31 | 45.11596 | 18.21052 | 36954 ft | 446 kts | 9° |
| 2026-05-05 14:32 | 45.17670 | 18.22997 | 36937 ft | 444 kts | 9° |
| 2026-05-05 14:32 | 45.23672 | 18.24897 | 36934 ft | 444 kts | 9° |
| 2026-05-05 14:33 | 45.29698 | 18.26823 | 36934 ft | 444 kts | 9° |
| 2026-05-05 14:33 | 45.35735 | 18.28759 | 36934 ft | 444 kts | 9° |
| 2026-05-05 14:34 | 45.41765 | 18.30698 | 36937 ft | 444 kts | 9° |
| 2026-05-05 14:34 | 45.47792 | 18.32642 | 36942 ft | 444 kts | 9° |
| 2026-05-05 14:35 | 45.53833 | 18.34597 | 36945 ft | 445 kts | 9° |
| 2026-05-05 14:35 | 45.59871 | 18.36551 | 36942 ft | 445 kts | 9° |
| 2026-05-05 14:36 | 45.65927 | 18.38515 | 36942 ft | 445 kts | 9° |
| 2026-05-05 14:36 | 45.71935 | 18.40463 | 36956 ft | 446 kts | 9° |
| 2026-05-05 14:37 | 45.77997 | 18.42348 | 36955 ft | 446 kts | 8° |
| 2026-05-05 14:37 | 45.84116 | 18.43894 | 36958 ft | 445 kts | 6° |
| 2026-05-05 14:38 | 45.90223 | 18.45340 | 36881 ft | 444 kts | 7° |
| 2026-05-05 14:38 | 45.93276 | 18.46091 | 36322 ft | 444 kts | 7° |
| 2026-05-05 14:38 | 45.96320 | 18.46861 | 35698 ft | 446 kts | 7° |
| 2026-05-05 14:39 | 45.99378 | 18.47650 | 35082 ft | 447 kts | 7° |
| 2026-05-05 14:39 | 46.02433 | 18.48445 | 34623 ft | 445 kts | 7° |
| 2026-05-05 14:39 | 46.05472 | 18.49241 | 34195 ft | 441 kts | 7° |
| 2026-05-05 14:39 | 46.08489 | 18.50028 | 33719 ft | 439 kts | 6° |
| 2026-05-05 14:40 | 46.11484 | 18.50806 | 33205 ft | 436 kts | 6° |
| 2026-05-05 14:40 | 46.14420 | 18.51567 | 32731 ft | 432 kts | 6° |
| 2026-05-05 14:40 | 46.17370 | 18.52328 | 32253 ft | 429 kts | 6° |
| 2026-05-05 14:40 | 46.20298 | 18.53082 | 31764 ft | 425 kts | 6° |
| 2026-05-05 14:41 | 46.23204 | 18.53829 | 31306 ft | 422 kts | 7° |
| 2026-05-05 14:41 | 46.26085 | 18.54571 | 30844 ft | 419 kts | 7° |
| 2026-05-05 14:41 | 46.28943 | 18.55311 | 30400 ft | 415 kts | 7° |
| 2026-05-05 14:41 | 46.31776 | 18.56045 | 29969 ft | 412 kts | 7° |
| 2026-05-05 14:42 | 46.34586 | 18.56774 | 29468 ft | 408 kts | 7° |
| 2026-05-05 14:42 | 46.37372 | 18.57496 | 28962 ft | 406 kts | 7° |
| 2026-05-05 14:42 | 46.40144 | 18.58217 | 28464 ft | 403 kts | 7° |
| 2026-05-05 14:42 | 46.41963 | 18.58692 | 28143 ft | 401 kts | 7° |
| 2026-05-05 14:43 | 46.44706 | 18.59413 | 27667 ft | 399 kts | 7° |
| 2026-05-05 14:43 | 46.47430 | 18.60127 | 27212 ft | 397 kts | 7° |
| 2026-05-05 14:43 | 46.50139 | 18.60834 | 26778 ft | 395 kts | 7° |
| 2026-05-05 14:43 | 46.52835 | 18.61538 | 26357 ft | 393 kts | 7° |
| 2026-05-05 14:44 | 46.55517 | 18.62242 | 25950 ft | 390 kts | 8° |
| 2026-05-05 14:44 | 46.58181 | 18.62944 | 25538 ft | 388 kts | 8° |
| 2026-05-05 14:44 | 46.60836 | 18.63645 | 25125 ft | 386 kts | 8° |
| 2026-05-05 14:44 | 46.63480 | 18.64342 | 24713 ft | 385 kts | 8° |
| 2026-05-05 14:45 | 46.66105 | 18.65031 | 24304 ft | 383 kts | 8° |
| 2026-05-05 14:45 | 46.68722 | 18.65715 | 23885 ft | 381 kts | 7° |
| 2026-05-05 14:45 | 46.71338 | 18.66399 | 23451 ft | 380 kts | 8° |
| 2026-05-05 14:45 | 46.73906 | 18.67074 | 22966 ft | 379 kts | 8° |
| 2026-05-05 14:46 | 46.76492 | 18.67756 | 22483 ft | 377 kts | 8° |
| 2026-05-05 14:46 | 46.79066 | 18.68437 | 22011 ft | 375 kts | 8° |
| 2026-05-05 14:46 | 46.81625 | 18.69114 | 21555 ft | 372 kts | 8° |
| 2026-05-05 14:46 | 46.84168 | 18.69786 | 21097 ft | 370 kts | 8° |
| 2026-05-05 14:47 | 46.86697 | 18.70454 | 20651 ft | 368 kts | 8° |
| 2026-05-05 14:47 | 46.89207 | 18.71123 | 20222 ft | 366 kts | 8° |
| 2026-05-05 14:47 | 46.91712 | 18.71792 | 19765 ft | 365 kts | 8° |
| 2026-05-05 14:47 | 46.94204 | 18.72457 | 19327 ft | 363 kts | 8° |
| 2026-05-05 14:48 | 46.96684 | 18.73120 | 18914 ft | 361 kts | 8° |
| 2026-05-05 14:48 | 46.99148 | 18.73778 | 18482 ft | 359 kts | 8° |
| 2026-05-05 14:48 | 47.01603 | 18.74430 | 18023 ft | 358 kts | 8° |
| 2026-05-05 14:48 | 47.04053 | 18.75082 | 17556 ft | 356 kts | 8° |
| 2026-05-05 14:49 | 47.06478 | 18.75730 | 17088 ft | 355 kts | 8° |
| 2026-05-05 14:49 | 47.08908 | 18.76379 | 16615 ft | 353 kts | 8° |
| 2026-05-05 14:49 | 47.11319 | 18.77022 | 16162 ft | 352 kts | 9° |
| 2026-05-05 14:49 | 47.13719 | 18.77664 | 15518 ft | 349 kts | 9° |
| 2026-05-05 14:50 | 47.16103 | 18.78301 | 14834 ft | 348 kts | 9° |
| 2026-05-05 14:50 | 47.18490 | 18.78941 | 14164 ft | 348 kts | 9° |
| 2026-05-05 14:50 | 47.20837 | 18.79572 | 13504 ft | 347 kts | 9° |
| 2026-05-05 14:50 | 47.23207 | 18.80214 | 12820 ft | 345 kts | 9° |
| 2026-05-05 14:51 | 47.25559 | 18.80852 | 12191 ft | 342 kts | 9° |
| 2026-05-05 14:51 | 47.27891 | 18.81481 | 11580 ft | 339 kts | 9° |
| 2026-05-05 14:51 | 47.30188 | 18.82100 | 11190 ft | 329 kts | 9° |
| 2026-05-05 14:51 | 47.32410 | 18.82700 | 10779 ft | 321 kts | 9° |
| 2026-05-05 14:52 | 47.34597 | 18.83292 | 10269 ft | 318 kts | 9° |
| 2026-05-05 14:52 | 47.36760 | 18.83878 | 9761 ft | 315 kts | 9° |
| 2026-05-05 14:52 | 47.38909 | 18.84461 | 9191 ft | 312 kts | 9° |
| 2026-05-05 14:52 | 47.40988 | 18.85026 | 9046 ft | 296 kts | 9° |
| 2026-05-05 14:53 | 47.42980 | 18.85565 | 8700 ft | 288 kts | 9° |
| 2026-05-05 14:53 | 47.44941 | 18.86094 | 8215 ft | 285 kts | 9° |
| 2026-05-05 14:53 | 47.46886 | 18.86618 | 7767 ft | 283 kts | 9° |
| 2026-05-05 14:53 | 47.48814 | 18.87139 | 7321 ft | 281 kts | 9° |
| 2026-05-05 14:54 | 47.50730 | 18.87658 | 6914 ft | 278 kts | 9° |
| 2026-05-05 14:54 | 47.52613 | 18.88199 | 6574 ft | 269 kts | 14° |
| 2026-05-05 14:54 | 47.54304 | 18.89169 | 6361 ft | 256 kts | 28° |
| 2026-05-05 14:54 | 47.55764 | 18.90668 | 5878 ft | 254 kts | 44° |
| 2026-05-05 14:55 | 47.57008 | 18.92486 | 5514 ft | 249 kts | 54° |
| 2026-05-05 14:55 | 47.57860 | 18.94666 | 5009 ft | 250 kts | 73° |
| 2026-05-05 14:55 | 47.58192 | 18.97179 | 4538 ft | 245 kts | 94° |
| 2026-05-05 14:55 | 47.57975 | 18.99587 | 4277 ft | 227 kts | 112° |
| 2026-05-05 14:56 | 47.57357 | 19.01612 | 4053 ft | 207 kts | 128° |
| 2026-05-05 14:56 | 47.56484 | 19.03195 | 3791 ft | 192 kts | 138° |
| 2026-05-05 14:56 | 47.55602 | 19.04637 | 3544 ft | 186 kts | 138° |
| 2026-05-05 14:56 | 47.54740 | 19.06040 | 3307 ft | 184 kts | 138° |
| 2026-05-05 14:57 | 47.53881 | 19.07440 | 3079 ft | 182 kts | 138° |
| 2026-05-05 14:57 | 47.53037 | 19.08814 | 2829 ft | 179 kts | 137° |
| 2026-05-05 14:57 | 47.52214 | 19.10154 | 2595 ft | 172 kts | 137° |
| 2026-05-05 14:57 | 47.51428 | 19.11432 | 2379 ft | 164 kts | 138° |
| 2026-05-05 14:58 | 47.50670 | 19.12664 | 2180 ft | 157 kts | 138° |
| 2026-05-05 14:58 | 47.49962 | 19.13817 | 1976 ft | 147 kts | 137° |
| 2026-05-05 14:58 | 47.49286 | 19.14911 | 1765 ft | 143 kts | 139° |
| 2026-05-05 14:58 | 47.48618 | 19.15995 | 1605 ft | 142 kts | 137° |
| 2026-05-05 14:59 | 47.47957 | 19.17076 | 1408 ft | 143 kts | 138° |
| 2026-05-05 14:59 | 47.47280 | 19.18165 | 1182 ft | 145 kts | 139° |
| 2026-05-05 14:59 | 47.46606 | 19.19280 | 986 ft | 147 kts | 139° |
| 2026-05-05 14:59 | 47.45929 | 19.20395 | 809 ft | 145 kts | 142° |
| 2026-05-05 15:00 | 47.45252 | 19.21479 | 615 ft | 143 kts | 139° |
| 2026-05-05 15:00 | 47.44807 | 19.22197 | 487 ft | 142 kts | 134° |
| 2026-05-05 15:00 | 47.44041 | 19.23422 | 455 ft | 98 kts | 133° |
| 2026-05-05 15:00 | 47.43644 | 19.24064 | 453 ft | 73 kts | 133° |
| 2026-05-05 15:01 | 47.43345 | 19.24545 | 452 ft | 52 kts | 132° |
| 2026-05-05 15:01 | 47.43147 | 19.24866 | 457 ft | 29 kts | 132° |
| 2026-05-05 15:01 | 47.43100 | 19.25028 | 457 ft | 16 kts | 75° |
| 2026-05-05 15:01 | 47.43172 | 19.25156 | 457 ft | 17 kts | 42° |
| 2026-05-05 15:02 | 47.43264 | 19.25279 | 457 ft | 18 kts | 42° |
| 2026-05-05 15:02 | 47.43361 | 19.25410 | 456 ft | 19 kts | 42° |
| 2026-05-05 15:02 | 47.43464 | 19.25549 | 457 ft | 21 kts | 42° |
| 2026-05-05 15:02 | 47.43574 | 19.25695 | 457 ft | 22 kts | 42° |
| 2026-05-05 15:03 | 47.43686 | 19.25846 | 457 ft | 23 kts | 42° |
| 2026-05-05 15:03 | 47.43735 | 19.25967 | 457 ft | 12 kts | 112° |
| 2026-05-05 15:03 | 47.43680 | 19.26072 | 457 ft | 14 kts | 115° |
| 2026-05-05 15:03 | 47.43678 | 19.26217 | 457 ft | 15 kts | 87° |
| 2026-05-05 15:04 | 47.43655 | 19.26366 | 458 ft | 16 kts | 129° |
| 2026-05-05 15:04 | 47.43608 | 19.26441 | 456 ft | 4 kts | 146° |
| 2026-05-05 15:04 | 47.43590 | 19.26429 | 458 ft | 3 kts | 216° |
| 2026-05-05 15:04 | 47.43569 | 19.26399 | 458 ft | 2 kts | 223° |
| 2026-05-05 15:05 | 47.43564 | 19.26392 | 457 ft | 0 kts | 223° |